ADDS METAR Data INFO
IDs: Format: Raw Decoded Include TAF

Data at: 0100 UTC 21 Oct 2017

KPRC 210053Z 19013G19KT 8SM CLR 17/04 A2986 RMK AO2 SLP052 T01720039
KPRC 202353Z 21016G25KT 8SM CLR 18/03 A2986 RMK AO2 PK WND 24027/2329 WSHFT 2310 SLP055 T01830033 10222 20183 51004
KPRC 202330Z 23021G27KT 9SM CLR 20/03 A2987 RMK AO2 PK WND 24027/2329 WSHFT 2310 T02000028
KPRC 202253Z 20015G20KT 9SM CLR 21/03 A2986 RMK AO2 PK WND 20027/2202 SLP049 T02060033
KPRC 202153Z 21017G27KT 10SM CLR 22/01 A2985 RMK AO2 PK WND 20027/2153 SLP045 T02170011
KPRC 202053Z 19017G25KT 10SM CLR 21/01 A2985 RMK AO2 PRESFR SLP042 T02110006 58032
KPRC 201953Z 19014G23KT 10SM CLR 22/00 A2990 RMK AO2 SLP057 T02170000
KPRC 201853Z 20016G19KT 9SM CLR 22/00 A2993 RMK AO2 PRESFR SLP070 T02170000
KPRC 201753Z 21011G22KT 10SM CLR 22/M01 A2996 RMK AO2 SLP077 T02171006 10217 20089 50006
KPRC 201653Z 20012G20KT 10SM CLR 20/M01 A2997 RMK AO2 SLP084 T02001011
KPRC 201553Z 19010KT 10SM CLR 19/M01 A2994 RMK AO2 SLP070 T01941006
KPRC 201453Z 19008KT 10SM CLR 17/01 A2994 RMK AO2 SLP073 T01670006 58004
KPRC 201353Z 20006KT 10SM CLR 13/02 A2994 RMK AO2 SLP078 T01280017
KPRC 201253Z 21007KT 10SM CLR 13/02 A2996 RMK AO2 SLP078 T01280017
KPRC 201153Z 00000KT 9SM CLR 09/01 A2995 RMK AO2 SLP078 T00940011 10139 20094 55007
KPRC 201053Z 19005KT 10SM CLR 10/01 A2994 RMK AO2 SLP074 T01000011
KPRC 200953Z 20006KT 10SM CLR 10/02 A2996 RMK AO2 SLP076 T01000017
KPRC 200853Z 18004KT 10SM CLR 12/02 A2998 RMK AO2 SLP079 T01220022 55004
KPRC 200753Z 18006KT 10SM CLR 13/03 A2997 RMK AO2 SLP076 T01280028
KPRC 200653Z 16006KT 10SM CLR 12/04 A2997 RMK AO2 SLP081 T01170044 402610111
KPRC 200553Z 17005KT 10SM CLR 13/03 A2999 RMK AO2 SLP084 T01330033 10233 20133 50001
KPRC 200453Z 19007KT 10SM CLR 14/03 A3000 RMK AO2 SLP088 T01440033
KPRC 200353Z 21006KT 10SM CLR 16/03 A2999 RMK AO2 SLP089 T01610028
KPRC 200253Z 21004KT 10SM CLR 17/03 A2999 RMK AO2 SLP094 T01670028 53007
KPRC 200153Z 20004KT 10SM CLR 19/02 A2998 RMK AO2 SLP091 T01890017
KPRC 200053Z 21007KT 9SM CLR 21/01 A2996 RMK AO2 SLP080 T02110006
KPRC 192353Z 20009KT 9SM CLR 23/00 A2996 RMK AO2 SLP076 T02330000 10261 20233 58004
KPRC 192253Z 19012KT 9SM FEW100 24/00 A2997 RMK AO2 SLP077 T02440000
KPRC 192153Z 21013G20KT 10SM FEW100 25/00 A2997 RMK AO2 SLP078 T02500000
KPRC 192053Z 23011G17KT 9SM CLR 26/00 A2998 RMK AO2 SLP078 T02560000 56022
KPRC 191953Z 18014G21KT 10SM CLR 26/00 A2999 RMK AO2 SLP084 T02560000
KPRC 191853Z 20014KT 10SM CLR 25/02 A3003 RMK AO2 SLP097 T02500017
KPRC 191753Z 21010KT 10SM FEW085 SCT100 24/02 A3005 RMK AO2 SLP102 T02390017 10250 20111 58005
KPRC 191653Z 13007KT 10SM CLR 23/00 A3006 RMK AO2 SLP107 T02330000
KPRC 191553Z 00000KT 10SM SCT110 19/01 A3007 RMK AO2 SLP118 T01940006
KPRC 191453Z 00000KT 10SM SCT095 SCT120 14/00 A3007 RMK AO2 SLP120 T01440000 53005
KPRC 191353Z 00000KT 10SM BKN110 12/01 A3006 RMK AO2 SLP118 T01170006